Time;durP1;ratioP1;P1;durP2;ratioP2;P2;SDS_P1;SDS_P2;PMS_P1;PMS_P2;Temp;Humidity;BMP_temperature;BMP_pressure;BME280_temperature;BME280_humidity;BME280_pressure;Samples;Min_cycle;Max_cycle;Signal;HPM_P1;HPM_P2
2021/11/11 00:01:11;;;;;;;27.10;14.75;;;8.40;97.30;;;;;;5055871;28;20021;-63
2021/11/11 00:03:36;;;;;;;24.23;15.70;;;8.40;97.30;;;;;;5053196;28;20112;-63
2021/11/11 00:06:02;;;;;;;22.92;15.23;;;8.40;97.30;;;;;;5052858;28;20037;-63
2021/11/11 00:08:27;;;;;;;24.13;15.15;;;8.30;97.30;;;;;;5058895;28;20104;-63
2021/11/11 00:10:53;;;;;;;21.88;14.15;;;8.30;97.30;;;;;;5071771;28;20040;-63
2021/11/11 00:13:19;;;;;;;22.02;14.95;;;8.20;97.30;;;;;;5072722;28;20041;-63
2021/11/11 00:15:47;;;;;;;23.77;14.43;;;8.20;97.40;;;;;;5061575;28;20083;-64
2021/11/11 00:18:13;;;;;;;21.55;14.18;;;8.30;97.40;;;;;;5052497;28;20036;-64
2021/11/11 00:20:39;;;;;;;21.95;14.10;;;8.20;97.40;;;;;;5052407;28;20029;-64
2021/11/11 00:23:04;;;;;;;22.95;14.45;;;8.20;97.40;;;;;;5052797;28;20036;-64
2021/11/11 00:25:30;;;;;;;24.05;15.45;;;8.20;97.40;;;;;;5056512;28;20029;-64
2021/11/11 00:27:56;;;;;;;20.70;13.82;;;8.20;97.40;;;;;;5052657;28;20090;-64
2021/11/11 00:30:22;;;;;;;21.48;14.43;;;8.10;97.40;;;;;;5051987;28;20029;-64
2021/11/11 00:32:50;;;;;;;23.67;14.15;;;8.10;97.40;;;;;;5052371;28;20491;-64
2021/11/11 00:35:18;;;;;;;24.15;15.52;;;8.10;97.40;;;;;;5054920;28;20043;-63
2021/11/11 00:37:44;;;;;;;22.48;14.32;;;8.00;97.40;;;;;;5052278;28;20359;-63
2021/11/11 00:40:11;;;;;;;24.00;13.80;;;8.00;97.40;;;;;;5056613;28;20029;-63
2021/11/11 00:42:36;;;;;;;20.73;14.55;;;8.00;97.40;;;;;;5058947;28;20366;-63
2021/11/11 00:45:03;;;;;;;20.98;15.15;;;7.90;97.40;;;;;;5055021;28;20032;-63
2021/11/11 00:47:28;;;;;;;23.63;13.65;;;7.90;97.40;;;;;;5071885;28;20025;-63
2021/11/11 00:49:54;;;;;;;25.45;15.15;;;7.90;97.40;;;;;;5070456;28;20025;-63
2021/11/11 00:55:42;;;;;;;24.10;14.18;;;7.80;97.30;;;;;;5053097;28;20477;-63
2021/11/11 00:58:07;;;;;;;23.52;15.55;;;7.80;97.30;;;;;;5049324;28;20025;-63
2021/11/11 01:00:36;;;;;;;24.30;15.20;;;7.80;97.40;;;;;;5051322;28;20081;-63
2021/11/11 01:03:04;;;;;;;24.38;15.50;;;7.70;97.40;;;;;;5051497;28;20036;-63
2021/11/11 01:05:30;;;;;;;25.40;15.82;;;7.70;97.40;;;;;;5051098;28;20108;-63
2021/11/11 01:07:56;;;;;;;22.90;15.15;;;7.60;97.40;;;;;;5050357;28;20108;-63
2021/11/11 01:10:22;;;;;;;26.92;16.80;;;7.60;97.40;;;;;;5050854;28;20154;-63
2021/11/11 01:12:49;;;;;;;23.67;15.00;;;7.60;97.50;;;;;;5050142;28;20036;-63
2021/11/11 01:15:17;;;;;;;27.30;13.57;;;7.50;97.50;;;;;;5050793;28;20079;-63
2021/11/11 01:17:44;;;;;;;22.88;14.50;;;7.50;97.50;;;;;;5065903;28;20020;-63
2021/11/11 01:20:11;;;;;;;22.15;14.43;;;7.50;97.50;;;;;;5069350;28;20108;-64
2021/11/11 01:22:38;;;;;;;22.33;13.98;;;7.50;97.60;;;;;;5069150;28;20035;-63
2021/11/11 01:25:07;;;;;;;20.80;14.32;;;7.50;97.60;;;;;;5069235;28;20032;-63
2021/11/11 01:27:33;;;;;;;22.95;14.02;;;7.50;97.60;;;;;;5055811;28;20469;-63
2021/11/11 01:29:58;;;;;;;25.92;15.43;;;7.40;97.60;;;;;;5050858;28;20128;-63
2021/11/11 01:32:24;;;;;;;22.33;14.65;;;7.40;97.60;;;;;;5050771;28;20057;-63
2021/11/11 01:34:50;;;;;;;23.73;14.35;;;7.40;97.60;;;;;;5050798;28;20081;-63
2021/11/11 01:37:15;;;;;;;30.20;15.60;;;7.30;97.60;;;;;;5050372;28;20017;-63
2021/11/11 01:39:41;;;;;;;23.35;15.00;;;7.30;97.60;;;;;;5050278;28;20079;-64
2021/11/11 01:42:07;;;;;;;25.20;14.82;;;7.30;97.70;;;;;;5049916;28;20031;-63
2021/11/11 01:44:32;;;;;;;22.92;14.75;;;7.30;97.70;;;;;;5050839;28;20025;-63
2021/11/11 01:46:58;;;;;;;26.25;15.93;;;7.30;97.70;;;;;;5065833;28;20059;-63
2021/11/11 01:49:24;;;;;;;23.00;15.07;;;7.20;97.70;;;;;;5069206;28;20434;-63
2021/11/11 01:51:49;;;;;;;22.25;14.95;;;7.20;97.80;;;;;;5062446;28;20040;-63
2021/11/11 01:54:17;;;;;;;27.85;15.75;;;7.20;97.70;;;;;;5050084;28;20119;-63
2021/11/11 01:56:42;;;;;;;24.35;15.60;;;7.20;97.70;;;;;;5015939;28;1113360;-63
2021/11/11 01:59:08;;;;;;;25.73;16.08;;;7.10;97.80;;;;;;5051260;28;20033;-63
2021/11/11 02:01:34;;;;;;;28.52;16.38;;;7.10;97.80;;;;;;5051708;28;20032;-62
2021/11/11 02:03:59;;;;;;;25.52;15.18;;;7.10;97.80;;;;;;5051231;28;20033;-63
2021/11/11 02:06:25;;;;;;;26.17;16.45;;;7.10;97.90;;;;;;5051439;28;20057;-62
2021/11/11 02:08:50;;;;;;;26.52;16.52;;;7.00;97.90;;;;;;5050914;28;20447;-62
2021/11/11 02:11:16;;;;;;;22.80;15.52;;;7.00;97.90;;;;;;5053490;28;20366;-63
2021/11/11 02:13:42;;;;;;;26.17;15.23;;;7.00;97.90;;;;;;5062227;28;20041;-63
2021/11/11 02:16:10;;;;;;;28.23;16.98;;;7.00;97.90;;;;;;5051000;28;20040;-63
2021/11/11 02:18:35;;;;;;;31.35;16.25;;;7.00;97.90;;;;;;5051098;28;20029;-63
2021/11/11 02:21:01;;;;;;;26.02;15.18;;;7.00;97.90;;;;;;5050621;28;20029;-64
2021/11/11 02:23:27;;;;;;;26.17;16.20;;;6.90;97.90;;;;;;5070718;28;20473;-64
2021/11/11 02:25:53;;;;;;;24.95;15.80;;;6.90;97.90;;;;;;5070010;28;20016;-63
2021/11/11 02:28:20;;;;;;;24.83;14.93;;;6.90;97.90;;;;;;5051307;28;20517;-64
2021/11/11 02:30:49;;;;;;;25.25;15.68;;;6.90;97.90;;;;;;5050999;28;20021;-64
2021/11/11 02:33:18;;;;;;;29.60;16.67;;;6.80;97.90;;;;;;5069518;28;20513;-64
2021/11/11 02:35:44;;;;;;;26.40;16.60;;;6.80;97.90;;;;;;5068008;28;20362;-64
2021/11/11 02:38:11;;;;;;;29.65;16.83;;;6.80;97.90;;;;;;5067048;28;20025;-64
2021/11/11 02:40:37;;;;;;;25.35;15.05;;;6.80;97.90;;;;;;5071161;28;20422;-64
2021/11/11 02:43:03;;;;;;;23.60;15.10;;;6.70;98.00;;;;;;5052079;28;20032;-64
2021/11/11 02:45:35;;;;;;;25.92;14.88;;;6.70;98.00;;;;;;5065152;28;20083;-64
2021/11/11 02:48:02;;;;;;;27.88;15.07;;;6.80;98.00;;;;;;5068053;28;20071;-64
2021/11/11 02:50:29;;;;;;;24.20;15.50;;;6.70;98.00;;;;;;5070757;28;20539;-64
2021/11/11 02:52:56;;;;;;;26.77;15.82;;;6.70;98.00;;;;;;5068814;28;20473;-64
2021/11/11 02:55:22;;;;;;;25.27;15.30;;;6.70;98.00;;;;;;5073921;28;20055;-64
2021/11/11 02:57:49;;;;;;;28.83;16.27;;;6.60;98.00;;;;;;5056652;28;20116;-64
2021/11/11 03:00:29;;;;;;;26.08;17.25;;;6.70;98.00;;;;;;5054146;28;20036;-64
2021/11/11 03:02:55;;;;;;;23.23;15.60;;;6.60;98.00;;;;;;5057013;28;20539;-64
2021/11/11 03:05:25;;;;;;;26.30;15.70;;;6.60;98.00;;;;;;5054039;28;20078;-64
2021/11/11 03:07:51;;;;;;;24.23;14.93;;;6.60;98.00;;;;;;5054362;28;20041;-64
2021/11/11 03:10:20;;;;;;;26.38;16.63;;;6.60;98.10;;;;;;5053807;28;20224;-64
2021/11/11 03:12:47;;;;;;;23.85;15.75;;;6.50;98.00;;;;;;5069829;28;20029;-64
2021/11/11 03:15:14;;;;;;;27.70;16.30;;;6.50;98.00;;;;;;5072823;28;20044;-64
2021/11/11 03:17:41;;;;;;;26.15;15.13;;;6.50;98.10;;;;;;5057198;28;20052;-64
2021/11/11 03:20:08;;;;;;;26.73;14.93;;;6.50;98.10;;;;;;5053879;28;20040;-64
2021/11/11 03:22:33;;;;;;;24.92;14.70;;;6.40;98.10;;;;;;5068860;28;20031;-64
2021/11/11 03:24:59;;;;;;;23.20;15.38;;;6.40;98.10;;;;;;5073996;28;20380;-64
2021/11/11 03:27:25;;;;;;;23.65;15.10;;;6.40;98.10;;;;;;5058530;28;20021;-63
2021/11/11 03:29:51;;;;;;;22.73;14.88;;;6.30;98.10;;;;;;5053631;28;20036;-63
2021/11/11 03:32:17;;;;;;;28.13;16.40;;;6.30;98.10;;;;;;5065480;28;20036;-63
2021/11/11 03:34:43;;;;;;;26.67;15.40;;;6.30;98.20;;;;;;5073634;28;20032;-63
2021/11/11 03:37:11;;;;;;;25.63;15.75;;;6.30;98.20;;;;;;5069563;28;20032;-63
2021/11/11 03:39:37;;;;;;;24.08;15.07;;;6.30;98.20;;;;;;5058380;28;20106;-64
2021/11/11 03:42:04;;;;;;;25.20;15.75;;;6.30;98.20;;;;;;5065553;28;20024;-63
2021/11/11 03:44:29;;;;;;;29.95;16.17;;;6.30;98.20;;;;;;5073321;28;20115;-63
2021/11/11 03:46:58;;;;;;;20.42;13.77;;;6.30;98.20;;;;;;5062009;28;20132;-63
2021/11/11 03:49:24;;;;;;;26.35;15.35;;;6.30;98.20;;;;;;5052263;28;20063;-63
2021/11/11 03:51:49;;;;;;;26.63;16.48;;;6.20;98.20;;;;;;5053578;28;20029;-63
2021/11/11 03:54:19;;;;;;;26.80;16.73;;;6.20;98.20;;;;;;5053178;28;20393;-63
2021/11/11 03:56:47;;;;;;;27.23;16.00;;;6.20;98.20;;;;;;5059962;28;20523;-63
2021/11/11 03:59:12;;;;;;;27.45;15.70;;;6.20;98.20;;;;;;5072938;28;20060;-63
2021/11/11 04:01:38;;;;;;;27.00;15.90;;;6.20;98.20;;;;;;5065034;28;20067;-64
2021/11/11 04:04:04;;;;;;;22.50;14.23;;;6.20;98.20;;;;;;5053176;28;20036;-63
2021/11/11 04:06:31;;;;;;;24.90;14.73;;;6.20;98.20;;;;;;5052369;28;20025;-63
2021/11/11 04:08:59;;;;;;;26.70;15.68;;;6.20;98.20;;;;;;5052330;28;20029;-63
2021/11/11 04:11:25;;;;;;;24.30;15.75;;;6.10;98.20;;;;;;5057122;28;20033;-63
2021/11/11 04:13:51;;;;;;;23.77;13.95;;;6.10;98.20;;;;;;5072666;28;20036;-63
2021/11/11 04:16:16;;;;;;;24.58;15.13;;;6.10;98.20;;;;;;5071396;28;20028;-63
2021/11/11 04:18:42;;;;;;;23.95;15.40;;;6.10;98.20;;;;;;5072904;28;20103;-63
2021/11/11 04:21:07;;;;;;;25.67;15.38;;;6.10;98.10;;;;;;5069696;28;20025;-63
2021/11/11 04:23:33;;;;;;;26.25;16.30;;;6.00;98.10;;;;;;5053028;28;20108;-63
2021/11/11 04:26:11;;;;;;;23.17;15.20;;;6.00;98.10;;;;;;5052154;28;20060;-63
2021/11/11 04:28:47;;;;;;;26.58;15.98;;;6.00;98.20;;;;;;5072506;28;20489;-63
2021/11/11 04:31:23;;;;;;;27.35;15.80;;;6.00;98.20;;;;;;5068526;28;20068;-63
2021/11/11 04:33:52;;;;;;;25.35;15.10;;;6.00;98.20;;;;;;5061133;28;20566;-63
2021/11/11 04:39:31;;;;;;;23.10;14.93;;;5.90;98.20;;;;;;5065204;28;20051;-63
2021/11/11 04:42:15;;;;;;;28.20;16.20;;;5.90;98.20;;;;;;5061875;28;20029;-63
2021/11/11 04:47:37;;;;;;;26.48;15.15;;;5.90;98.20;;;;;;5052546;28;20417;-63
2021/11/11 04:50:37;;;;;;;27.17;16.25;;;5.90;98.30;;;;;;5052524;28;20033;-63
2021/11/11 05:01:21;;;;;;;26.45;16.02;;;5.90;98.30;;;;;;5053139;28;20036;-63
2021/11/11 05:03:47;;;;;;;27.88;16.13;;;5.90;98.30;;;;;;5070563;28;20028;-63
2021/11/11 05:06:14;;;;;;;27.77;15.90;;;5.90;98.30;;;;;;5058297;28;20029;-63
2021/11/11 05:08:40;;;;;;;22.60;14.88;;;5.80;98.30;;;;;;5064488;28;20044;-63
2021/11/11 05:11:06;;;;;;;27.00;16.52;;;5.80;98.40;;;;;;5065928;28;20024;-63
2021/11/11 05:13:32;;;;;;;26.75;16.15;;;5.90;98.40;;;;;;5053794;28;20033;-64
2021/11/11 05:15:58;;;;;;;29.55;16.25;;;5.90;98.40;;;;;;5056022;28;20044;-64
2021/11/11 05:18:23;;;;;;;26.45;14.52;;;5.90;98.40;;;;;;5056953;28;20029;-64
2021/11/11 05:20:50;;;;;;;27.25;15.90;;;5.90;98.40;;;;;;5052811;28;20032;-64
2021/11/11 05:23:16;;;;;;;28.27;16.50;;;5.90;98.40;;;;;;5066986;28;20067;-64
2021/11/11 05:25:42;;;;;;;25.08;14.95;;;5.80;98.40;;;;;;5050165;28;20028;-64
2021/11/11 05:28:08;;;;;;;23.60;15.30;;;5.80;98.40;;;;;;5069959;28;20032;-64
2021/11/11 05:30:33;;;;;;;26.27;15.73;;;5.90;98.50;;;;;;5070780;28;20385;-64
2021/11/11 05:32:59;;;;;;;26.92;15.73;;;5.80;98.50;;;;;;5064341;28;20063;-63
2021/11/11 05:35:25;;;;;;;26.88;15.60;;;5.90;98.50;;;;;;5059852;28;20503;-63
2021/11/11 05:37:51;;;;;;;25.67;16.23;;;5.90;98.40;;;;;;5067105;28;20028;-64
2021/11/11 05:40:18;;;;;;;23.95;15.40;;;5.90;98.40;;;;;;5058082;28;20380;-63
2021/11/11 05:42:45;;;;;;;23.38;15.02;;;5.90;98.30;;;;;;5058853;28;20044;-63
2021/11/11 05:45:12;;;;;;;24.52;15.30;;;5.90;98.30;;;;;;5058586;28;20032;-63
2021/11/11 05:47:37;;;;;;;24.38;14.75;;;5.90;98.30;;;;;;5053694;28;20122;-63
2021/11/11 05:50:05;;;;;;;25.58;16.23;;;5.90;98.30;;;;;;5062207;28;20052;-63
2021/11/11 05:52:30;;;;;;;25.60;13.98;;;5.90;98.30;;;;;;5055438;28;20037;-63
2021/11/11 05:54:56;;;;;;;22.52;14.35;;;5.90;98.30;;;;;;5062218;28;20039;-64
2021/11/11 05:57:22;;;;;;;24.85;15.13;;;5.90;98.30;;;;;;5064992;28;20043;-64
2021/11/11 05:59:47;;;;;;;25.20;16.08;;;5.90;98.30;;;;;;5053312;28;20481;-63
2021/11/11 06:02:14;;;;;;;25.63;16.13;;;5.80;98.30;;;;;;5062146;28;20032;-64
2021/11/11 06:04:40;;;;;;;26.48;15.05;;;5.90;98.40;;;;;;5071528;28;20038;-64
2021/11/11 06:07:07;;;;;;;31.75;14.73;;;5.80;98.30;;;;;;5059356;28;20028;-62
2021/11/11 06:09:32;;;;;;;26.42;15.27;;;5.90;98.30;;;;;;5071396;28;20028;-64
2021/11/11 06:11:58;;;;;;;23.80;14.93;;;5.90;98.30;;;;;;5059856;28;20465;-62
2021/11/11 06:14:24;;;;;;;22.58;15.10;;;5.90;98.30;;;;;;5050578;28;20489;-63
2021/11/11 06:16:50;;;;;;;24.25;15.15;;;5.90;98.30;;;;;;5059769;28;20033;-64
2021/11/11 06:19:16;;;;;;;25.95;14.73;;;5.90;98.30;;;;;;5058974;28;20036;-63
2021/11/11 06:21:43;;;;;;;23.67;14.35;;;5.90;98.20;;;;;;5058110;28;20029;-63
2021/11/11 06:24:09;;;;;;;25.83;15.48;;;5.90;98.20;;;;;;5058696;28;20025;-64
2021/11/11 06:26:34;;;;;;;26.48;15.55;;;5.80;98.20;;;;;;5057259;28;20028;-64
2021/11/11 06:29:00;;;;;;;26.73;15.93;;;5.80;98.20;;;;;;5059728;28;20033;-63
2021/11/11 06:31:26;;;;;;;26.77;15.63;;;5.80;98.30;;;;;;5054740;28;20110;-63
2021/11/11 06:33:53;;;;;;;25.75;16.77;;;5.70;98.30;;;;;;5054064;28;20477;-63
2021/11/11 06:36:19;;;;;;;25.05;15.65;;;5.70;98.30;;;;;;5054329;28;20058;-63
2021/11/11 06:38:45;;;;;;;26.40;15.27;;;5.80;98.40;;;;;;5067020;28;20119;-63
2021/11/11 06:41:10;;;;;;;25.70;15.30;;;5.70;98.40;;;;;;5062989;28;20028;-63
2021/11/11 06:43:37;;;;;;;23.92;15.18;;;5.80;98.40;;;;;;5065165;28;20025;-63
2021/11/11 06:46:03;;;;;;;23.77;14.77;;;5.70;98.40;;;;;;5060563;28;20098;-62
2021/11/11 06:48:29;;;;;;;22.92;13.80;;;5.80;98.40;;;;;;5065891;28;20099;-62
2021/11/11 06:50:55;;;;;;;27.27;15.60;;;5.80;98.40;;;;;;5068088;28;20078;-62
2021/11/11 06:53:20;;;;;;;26.80;15.43;;;5.80;98.40;;;;;;5053682;28;20115;-63
2021/11/11 06:55:47;;;;;;;23.42;14.85;;;5.80;98.40;;;;;;5053150;28;20052;-63
2021/11/11 06:58:19;;;;;;;27.35;16.73;;;5.90;98.40;;;;;;5053284;28;20032;-62
2021/11/11 07:00:45;;;;;;;27.77;16.52;;;5.90;98.50;;;;;;5053323;28;20059;-64
2021/11/11 07:03:10;;;;;;;28.75;14.95;;;6.00;98.50;;;;;;5057680;28;20028;-63
2021/11/11 07:05:36;;;;;;;30.65;16.45;;;6.00;98.40;;;;;;5085085;28;20468;-63
2021/11/11 07:08:04;;;;;;;27.80;15.73;;;6.00;98.60;;;;;;5055397;28;20029;-63
2021/11/11 07:10:29;;;;;;;25.48;15.48;;;6.10;98.50;;;;;;5055473;28;20377;-63
2021/11/11 07:12:55;;;;;;;27.17;16.33;;;6.10;98.40;;;;;;5053128;28;20025;-63
2021/11/11 07:15:21;;;;;;;26.27;15.85;;;6.10;98.40;;;;;;5052257;28;20044;-64
2021/11/11 07:17:46;;;;;;;29.35;16.05;;;6.20;98.40;;;;;;5053676;28;20634;-63
2021/11/11 07:20:15;;;;;;;29.05;16.23;;;6.20;98.40;;;;;;5064588;28;20546;-63
2021/11/11 07:22:43;;;;;;;27.02;15.80;;;6.20;98.40;;;;;;5057989;28;20124;-64
2021/11/11 07:25:10;;;;;;;23.65;15.40;;;6.20;98.40;;;;;;5054360;28;20032;-63
2021/11/11 07:27:35;;;;;;;27.83;17.23;;;6.20;98.40;;;;;;5056745;28;20039;-64
2021/11/11 07:30:08;;;;;;;27.10;16.77;;;6.20;98.50;;;;;;5051906;28;20024;-63
2021/11/11 07:32:34;;;;;;;25.75;16.02;;;6.20;98.50;;;;;;5067488;28;20476;-63
2021/11/11 07:34:59;;;;;;;25.92;15.93;;;6.30;98.50;;;;;;5056613;28;20040;-64
2021/11/11 07:37:25;;;;;;;25.33;16.15;;;6.30;98.60;;;;;;5069015;28;20074;-63
2021/11/11 07:39:52;;;;;;;25.20;16.77;;;6.30;98.50;;;;;;5056176;28;20025;-63
2021/11/11 07:42:20;;;;;;;27.15;17.08;;;6.40;98.60;;;;;;5064386;28;20033;-64
2021/11/11 07:44:46;;;;;;;25.75;16.45;;;6.40;98.50;;;;;;5055319;28;20033;-64
2021/11/11 07:47:11;;;;;;;29.92;17.70;;;6.50;98.50;;;;;;5053615;28;20329;-64
2021/11/11 07:49:37;;;;;;;32.08;18.40;;;6.50;98.50;;;;;;5055384;28;20028;-64
2021/11/11 07:52:03;;;;;;;25.55;16.38;;;6.60;98.50;;;;;;5055751;28;20032;-64
2021/11/11 07:54:28;;;;;;;25.23;16.02;;;6.60;98.50;;;;;;5050520;28;20565;-63
2021/11/11 07:56:55;;;;;;;27.23;16.60;;;6.60;98.50;;;;;;5056024;28;20072;-63
2021/11/11 07:59:21;;;;;;;26.77;15.73;;;6.70;98.50;;;;;;5051644;28;20496;-63
2021/11/11 08:01:46;;;;;;;27.20;16.70;;;6.70;98.40;;;;;;5050911;28;20025;-64
2021/11/11 08:04:12;;;;;;;27.63;16.45;;;6.80;98.40;;;;;;5051185;28;20029;-64
2021/11/11 08:06:37;;;;;;;28.55;15.85;;;6.80;98.30;;;;;;5059084;28;20017;-64
2021/11/11 08:09:03;;;;;;;29.70;16.42;;;6.90;98.30;;;;;;5051236;28;20025;-64
2021/11/11 08:11:29;;;;;;;24.35;15.65;;;6.90;98.30;;;;;;5052335;28;20016;-65
2021/11/11 08:13:55;;;;;;;29.77;17.38;;;6.90;98.30;;;;;;5055528;28;20385;-63
2021/11/11 08:16:21;;;;;;;29.08;17.50;;;6.90;98.30;;;;;;5051712;28;20533;-64
2021/11/11 08:18:46;;;;;;;32.08;18.00;;;7.00;98.30;;;;;;5051504;28;20501;-64
2021/11/11 08:21:12;;;;;;;29.02;16.90;;;7.00;98.30;;;;;;5058241;28;20489;-64
2021/11/11 08:23:38;;;;;;;27.05;17.35;;;7.10;98.40;;;;;;5051851;28;20053;-64
2021/11/11 08:26:05;;;;;;;29.13;17.85;;;7.10;98.30;;;;;;5056219;28;20511;-63
2021/11/11 08:28:31;;;;;;;28.50;16.92;;;7.20;98.30;;;;;;5054316;28;20028;-64
2021/11/11 08:30:57;;;;;;;27.40;17.92;;;7.20;98.20;;;;;;5052236;28;20033;-63
2021/11/11 08:33:22;;;;;;;27.88;16.63;;;7.30;98.20;;;;;;5052301;28;20120;-64
2021/11/11 08:35:49;;;;;;;29.52;18.05;;;7.30;98.10;;;;;;5051804;28;20054;-63
2021/11/11 08:38:15;;;;;;;29.42;17.35;;;7.40;98.10;;;;;;5049259;28;20107;-64
2021/11/11 08:40:41;;;;;;;29.42;17.08;;;7.40;98.10;;;;;;5056531;28;20107;-63
2021/11/11 08:43:07;;;;;;;30.73;17.70;;;7.50;98.10;;;;;;5050812;28;20036;-63
2021/11/11 08:45:33;;;;;;;34.35;17.60;;;7.50;98.10;;;;;;5063318;28;20647;-63
2021/11/11 08:48:01;;;;;;;31.58;17.25;;;7.60;98.10;;;;;;5050218;28;20103;-63
2021/11/11 08:50:30;;;;;;;29.20;17.60;;;7.70;98.10;;;;;;5055308;28;20455;-63
2021/11/11 08:52:57;;;;;;;30.85;18.13;;;7.70;98.10;;;;;;5050775;28;20028;-63
2021/11/11 08:55:25;;;;;;;28.20;17.55;;;7.80;98.10;;;;;;5056231;28;20060;-64
2021/11/11 08:57:52;;;;;;;31.92;17.75;;;7.80;98.10;;;;;;5067167;28;20164;-63
2021/11/11 09:00:21;;;;;;;30.90;17.92;;;7.90;98.10;;;;;;5050749;28;20072;-63
2021/11/11 09:02:50;;;;;;;31.83;18.42;;;7.90;98.10;;;;;;5072051;28;20401;-63
2021/11/11 09:05:18;;;;;;;30.98;17.45;;;8.00;98.10;;;;;;5050931;28;20028;-63
2021/11/11 09:07:43;;;;;;;30.75;18.80;;;8.00;98.10;;;;;;5053746;28;20504;-63
2021/11/11 09:10:15;;;;;;;31.73;18.02;;;8.00;98.10;;;;;;5052218;28;20021;-63
2021/11/11 09:12:41;;;;;;;29.50;18.25;;;8.10;98.10;;;;;;5048408;28;20445;-63
2021/11/11 09:15:09;;;;;;;27.40;17.77;;;8.10;98.10;;;;;;5051240;28;20064;-63
2021/11/11 09:17:35;;;;;;;27.95;17.38;;;8.20;98.10;;;;;;5054811;28;20031;-63
2021/11/11 09:20:01;;;;;;;28.60;16.60;;;8.20;98.00;;;;;;5052531;28;20107;-63
2021/11/11 09:22:27;;;;;;;26.17;17.02;;;8.30;98.00;;;;;;5058029;28;20338;-63
2021/11/11 09:24:53;;;;;;;26.17;16.85;;;8.40;98.00;;;;;;5050264;28;20033;-63
2021/11/11 09:27:20;;;;;;;26.88;16.85;;;8.40;97.90;;;;;;5051391;28;20457;-63
2021/11/11 09:29:45;;;;;;;28.50;17.08;;;8.50;97.90;;;;;;5050409;28;20500;-63
2021/11/11 09:32:11;;;;;;;26.88;16.85;;;8.50;97.90;;;;;;5046326;28;20029;-63
2021/11/11 09:34:37;;;;;;;25.33;16.55;;;8.60;97.80;;;;;;5047779;28;20036;-63
2021/11/11 09:37:03;;;;;;;25.00;17.10;;;8.70;97.80;;;;;;5050121;28;20021;-63
2021/11/11 09:39:29;;;;;;;29.58;17.08;;;8.70;97.90;;;;;;5046468;28;20464;-63
2021/11/11 09:41:58;;;;;;;28.67;18.05;;;8.70;97.80;;;;;;5048419;28;20028;-63
2021/11/11 09:44:25;;;;;;;25.67;16.50;;;8.80;97.90;;;;;;5046458;28;20044;-63
2021/11/11 09:46:50;;;;;;;26.42;16.95;;;8.90;97.90;;;;;;5048397;28;20380;-63
2021/11/11 09:49:16;;;;;;;31.30;19.10;;;9.00;97.80;;;;;;5052750;28;20028;-63
2021/11/11 09:51:42;;;;;;;26.80;16.20;;;9.00;97.80;;;;;;5051966;28;20139;-63
2021/11/11 09:59:29;;;;;;;27.88;16.88;;;9.10;97.60;;;;;;5051528;28;20306;-62
2021/11/11 10:01:56;;;;;;;26.55;16.08;;;9.20;97.60;;;;;;5059569;28;20401;-62
2021/11/11 10:04:22;;;;;;;27.27;16.98;;;9.20;97.60;;;;;;5065628;28;20064;-62
2021/11/11 10:06:48;;;;;;;29.70;16.75;;;9.30;97.50;;;;;;5053915;28;20044;-62
2021/11/11 10:09:20;;;;;;;31.60;16.73;;;9.40;97.50;;;;;;5062240;28;20029;-62
2021/11/11 10:11:52;;;;;;;23.90;14.70;;;9.40;97.40;;;;;;5062752;28;20473;-63
2021/11/11 10:14:30;;;;;;;28.75;16.63;;;9.40;97.50;;;;;;5057643;28;20567;-62
2021/11/11 10:17:07;;;;;;;25.90;15.75;;;9.40;97.50;;;;;;5061946;28;20075;-63
2021/11/11 10:19:37;;;;;;;26.58;16.17;;;9.50;97.60;;;;;;5052943;28;20396;-62
2021/11/11 10:22:31;;;;;;;27.10;15.95;;;9.60;97.60;;;;;;5052803;28;20039;-62
2021/11/11 10:25:00;;;;;;;25.30;14.80;;;9.60;97.60;;;;;;5051002;28;20509;-63
2021/11/11 10:27:44;;;;;;;24.85;14.85;;;9.70;97.60;;;;;;5051166;28;20123;-62
2021/11/11 10:30:22;;;;;;;24.80;15.07;;;9.80;97.60;;;;;;5052511;28;20520;-62
2021/11/11 10:32:54;;;;;;;23.65;14.35;;;9.90;97.60;;;;;;5053277;28;20025;-62
2021/11/11 10:35:23;;;;;;;25.35;16.25;;;9.90;97.50;;;;;;5052386;28;20097;-62
2021/11/11 10:38:00;;;;;;;24.70;15.20;;;10.00;97.50;;;;;;5050923;28;20040;-63
2021/11/11 10:40:31;;;;;;;25.63;15.30;;;10.10;97.30;;;;;;5049856;28;20025;-62
2021/11/11 10:42:57;;;;;;;27.15;15.40;;;10.10;97.20;;;;;;5053186;28;20033;-63
2021/11/11 10:45:27;;;;;;;24.20;14.73;;;10.20;97.40;;;;;;5052226;28;20021;-62
2021/11/11 10:47:56;;;;;;;26.60;14.50;;;10.30;97.20;;;;;;5059548;28;20555;-63
2021/11/11 10:50:27;;;;;;;26.67;15.10;;;10.40;97.10;;;;;;5068636;28;20547;-63
2021/11/11 10:53:02;;;;;;;25.20;14.80;;;10.40;97.00;;;;;;5069684;28;20388;-63
2021/11/11 10:55:38;;;;;;;27.60;15.43;;;10.50;96.90;;;;;;5061194;28;20171;-64
2021/11/11 10:58:10;;;;;;;25.70;14.30;;;10.60;96.90;;;;;;5055965;28;20033;-63
2021/11/11 11:00:55;;;;;;;33.70;16.10;;;10.70;96.80;;;;;;5061978;28;20021;-63
2021/11/11 11:03:23;;;;;;;24.73;15.00;;;10.80;96.70;;;;;;5064313;28;20036;-63
2021/11/11 11:06:19;;;;;;;24.65;14.95;;;10.90;96.60;;;;;;5074796;28;20040;-63
2021/11/11 11:08:51;;;;;;;23.17;14.10;;;11.00;96.60;;;;;;5073582;28;20032;-62
2021/11/11 11:11:20;;;;;;;24.00;14.55;;;11.00;96.40;;;;;;5061939;28;20040;-62
2021/11/11 11:14:02;;;;;;;24.85;14.77;;;11.10;96.20;;;;;;5059215;28;20041;-63
2021/11/11 11:16:35;;;;;;;27.13;14.63;;;11.20;96.20;;;;;;5062248;28;20068;-63
2021/11/11 11:19:15;;;;;;;23.38;14.65;;;11.30;96.10;;;;;;5057890;28;20039;-63
2021/11/11 11:21:51;;;;;;;24.70;14.38;;;11.40;96.10;;;;;;5056011;28;20032;-63
2021/11/11 11:24:24;;;;;;;20.02;14.23;;;11.40;95.90;;;;;;5053728;28;20123;-63
2021/11/11 11:26:56;;;;;;;25.02;14.15;;;11.50;95.90;;;;;;5052658;28;20021;-63
2021/11/11 11:29:33;;;;;;;23.83;14.38;;;11.50;95.60;;;;;;5051832;28;20439;-63
2021/11/11 11:32:07;;;;;;;23.08;14.45;;;11.60;95.60;;;;;;5064091;28;20040;-63
2021/11/11 11:34:45;;;;;;;22.90;15.02;;;11.70;95.40;;;;;;5064728;28;20129;-62
2021/11/11 11:37:21;;;;;;;26.25;15.60;;;11.70;95.40;;;;;;5060856;28;20033;-62
2021/11/11 11:40:04;;;;;;;20.25;13.73;;;11.80;95.10;;;;;;5053301;28;20082;-62
2021/11/11 11:42:35;;;;;;;22.38;14.25;;;11.90;94.90;;;;;;5053931;28;20040;-63
2021/11/11 11:45:10;;;;;;;23.10;13.82;;;11.90;94.70;;;;;;5075173;28;20507;-63
2021/11/11 11:47:50;;;;;;;25.38;14.60;;;11.90;94.60;;;;;;5060908;28;20033;-62
2021/11/11 11:50:26;;;;;;;24.10;14.25;;;12.00;94.50;;;;;;5053022;28;20140;-62
2021/11/11 11:53:00;;;;;;;21.20;13.13;;;11.90;94.50;;;;;;5052275;28;20043;-63
2021/11/11 11:55:32;;;;;;;26.53;14.93;;;12.00;94.40;;;;;;5055559;28;20409;-63
2021/11/11 12:00:54;;;;;;;21.52;14.20;;;12.00;94.30;;;;;;5061424;28;20043;-64
2021/11/11 12:09:20;;;;;;;22.65;13.75;;;12.10;94.20;;;;;;5052586;28;20110;-64
2021/11/11 12:14:21;;;;;;;22.45;14.10;;;12.20;94.10;;;;;;5051588;28;20053;-64
2021/11/11 12:34:35;;;;;;;21.67;13.05;;;12.30;94.00;;;;;;5051337;28;20064;-64
2021/11/11 12:40:17;;;;;;;20.98;11.95;;;12.40;94.00;;;;;;5054207;28;20029;-64
2021/11/11 12:42:53;;;;;;;20.45;11.80;;;12.50;94.10;;;;;;5061234;28;20031;-64
2021/11/11 12:45:22;;;;;;;19.80;12.32;;;12.50;94.00;;;;;;5060868;28;20048;-64
2021/11/11 12:47:53;;;;;;;19.85;12.57;;;12.60;94.00;;;;;;5060303;28;20029;-64
2021/11/11 12:50:38;;;;;;;23.08;14.98;;;12.60;94.00;;;;;;5062342;28;20024;-64
2021/11/11 12:53:19;;;;;;;22.08;13.27;;;12.60;93.90;;;;;;5064766;28;20039;-64
2021/11/11 12:56:00;;;;;;;20.58;13.32;;;12.70;93.90;;;;;;5055745;28;20055;-63
2021/11/11 12:58:37;;;;;;;21.30;12.75;;;12.70;93.90;;;;;;5051541;28;20079;-64
2021/11/11 13:01:12;;;;;;;22.58;13.52;;;12.70;93.70;;;;;;5055436;28;20040;-63
2021/11/11 13:03:46;;;;;;;;;;;12.70;93.80;;;;;;5055853;28;20040;-64
2021/11/11 13:06:13;;;;;;;16.17;10.75;;;12.80;94.00;;;;;;5052146;28;19915;-63
2021/11/11 13:08:55;;;;;;;18.00;12.25;;;12.80;93.90;;;;;;5053463;28;20021;-64
2021/11/11 13:11:33;;;;;;;17.35;10.75;;;12.70;93.80;;;;;;5054602;28;20186;-64
2021/11/11 13:14:06;;;;;;;19.67;12.35;;;12.80;93.90;;;;;;5051880;28;20067;-64
2021/11/11 13:16:32;;;;;;;19.27;11.38;;;12.80;93.80;;;;;;5051173;28;20029;-63
2021/11/11 13:18:59;;;;;;;17.02;12.07;;;12.80;93.80;;;;;;5060281;28;20085;-63
2021/11/11 13:21:50;;;;;;;21.45;13.00;;;12.80;93.80;;;;;;5051121;28;20032;-64
2021/11/11 13:24:38;;;;;;;19.95;12.85;;;12.80;93.80;;;;;;5056597;28;20489;-64
2021/11/11 15:13:38;;;;;;;13.45;7.15;;;12.60;95.50;;;;;;5061273;28;20399;-62
2021/11/11 15:16:13;;;;;;;12.25;6.47;;;12.70;95.70;;;;;;5062349;28;20045;-63
2021/11/11 15:45:16;;;;;;;13.05;6.40;;;12.50;96.00;;;;;;5056881;28;21944;-63
2021/11/11 16:01:06;;;;;;;21.42;9.73;;;12.40;96.40;;;;;;5051918;28;20541;-63
2021/11/11 16:03:46;;;;;;;15.07;9.40;;;12.30;96.40;;;;;;5057695;28;20036;-63